Time;durP1;ratioP1;P1;durP2;ratioP2;P2;SDS_P1;SDS_P2;PMS_P1;PMS_P2;Temp;Humidity;BMP_temperature;BMP_pressure;BME280_temperature;BME280_humidity;BME280_pressure;Samples;Min_cycle;Max_cycle;Signal;HPM_P1;HPM_P2
2023/10/04 00:00:31;;;;;;;7.07;2.03;;;;;;;10.43;100.00;148750.03;4908163;29;20233;-59
2023/10/04 00:03:02;;;;;;;4.53;2.20;;;;;;;10.38;100.00;148737.53;4910661;29;20221;-59
2023/10/04 00:05:30;;;;;;;5.20;2.10;;;;;;;10.34;100.00;148728.84;4907430;29;20258;-58
2023/10/04 00:08:03;;;;;;;7.17;1.97;;;;;;;10.30;100.00;148718.88;4910310;29;20323;-58
2023/10/04 00:10:30;;;;;;;4.53;1.90;;;;;;;10.29;100.00;148716.38;4907645;29;20226;-59
2023/10/04 00:13:01;;;;;;;6.17;1.70;;;;;;;10.17;100.00;148689.00;4910642;29;20610;-58
2023/10/04 00:15:31;;;;;;;4.03;1.43;;;;;;;10.17;100.00;148687.72;4907330;29;20224;-58
2023/10/04 00:18:02;;;;;;;6.10;1.73;;;;;;;10.15;100.00;148684.00;4909993;29;20258;-59
2023/10/04 00:20:32;;;;;;;11.70;2.30;;;;;;;10.15;100.00;148682.75;5097632;23;20227;-55
2023/10/04 00:23:04;;;;;;;5.43;2.03;;;;;;;10.11;100.00;148674.03;4929460;28;20235;-53
2023/10/04 00:25:33;;;;;;;9.57;2.50;;;;;;;10.09;100.00;148667.81;4925691;28;20235;-53
2023/10/04 00:28:02;;;;;;;4.80;2.23;;;;;;;10.06;100.00;148661.59;4929434;29;20313;-53
2023/10/04 00:30:30;;;;;;;5.23;1.93;;;;;;;10.01;100.00;148650.41;4924841;28;20223;-54
2023/10/04 00:33:04;;;;;;;5.47;2.20;;;;;;;9.97;100.00;148640.44;4942584;28;20253;-53
2023/10/04 00:35:31;;;;;;;6.57;1.90;;;;;;;9.92;100.00;148628.00;4928359;28;20255;-54
2023/10/04 00:38:03;;;;;;;4.67;2.00;;;;;;;9.90;100.00;148624.25;4939815;28;20272;-53
2023/10/04 00:40:31;;;;;;;6.43;1.83;;;;;;;9.83;100.00;148605.59;4926500;28;20298;-53
2023/10/04 00:43:13;;;;;;;4.33;1.63;;;;;;;9.81;100.00;148601.84;4943228;28;20235;-53
2023/10/04 00:45:40;;;;;;;6.23;2.10;;;;;;;9.81;100.00;148600.63;4929599;28;20242;-55
2023/10/04 00:48:11;;;;;;;3.83;1.77;;;;;;;9.72;100.00;148579.44;4930378;29;20578;-55
2023/10/04 00:50:38;;;;;;;5.33;2.00;;;;;;;9.67;100.00;148568.25;4915925;28;20246;-53
2023/10/04 00:53:08;;;;;;;4.13;2.17;;;;;;;9.64;100.00;148559.50;4927408;29;20234;-55
2023/10/04 00:55:37;;;;;;;5.03;2.00;;;;;;;9.70;100.00;148574.44;4917210;28;20575;-53
2023/10/04 00:58:07;;;;;;;5.77;2.10;;;;;;;9.65;100.00;148562.00;4929195;29;20220;-54
2023/10/04 01:00:34;;;;;;;8.47;2.53;;;;;;;9.57;100.00;148544.56;4915459;28;20309;-55
2023/10/04 01:03:02;;;;;;;5.13;2.30;;;;;;;9.54;100.00;148537.09;4927443;29;20270;-53
2023/10/04 01:05:30;;;;;;;7.23;2.17;;;;;;;9.51;100.00;148529.69;4924610;28;20310;-54
2023/10/04 01:08:01;;;;;;;4.13;2.00;;;;;;;9.45;100.00;148515.97;4942937;28;20231;-54
2023/10/04 01:10:32;;;;;;;5.70;2.13;;;;;;;9.44;100.00;148513.47;4934256;28;20221;-54
2023/10/04 01:13:05;;;;;;;5.27;2.00;;;;;;;9.42;100.00;148507.28;4928575;29;20229;-55
2023/10/04 01:15:32;;;;;;;3.63;1.87;;;;;;;9.40;100.00;148502.31;4919335;28;20318;-55
2023/10/04 01:18:03;;;;;;;4.07;2.40;;;;;;;9.38;100.00;148497.31;4938920;29;20229;-53
2023/10/04 01:20:30;;;;;;;5.17;2.23;;;;;;;9.47;100.00;148519.72;4923662;28;20233;-55
2023/10/04 01:23:05;;;;;;;8.33;2.07;;;;;;;9.44;100.00;148513.47;4942880;28;20231;-53
2023/10/04 01:25:35;;;;;;;5.33;1.87;;;;;;;9.49;100.00;148523.44;4926039;28;20248;-54
2023/10/04 01:28:06;;;;;;;6.73;2.50;;;;;;;9.40;100.00;148503.53;4926854;29;20582;-53
2023/10/04 01:30:33;;;;;;;10.80;3.37;;;;;;;9.41;100.00;148504.78;4924005;28;20234;-55
2023/10/04 01:33:03;;;;;;;5.10;1.90;;;;;;;9.45;100.00;148515.97;4926733;29;20351;-55
2023/10/04 01:35:29;;;;;;;4.73;2.00;;;;;;;9.48;100.00;148522.22;4928714;28;20874;-52
2023/10/04 01:38:06;;;;;;;7.37;2.03;;;;;;;9.50;100.00;148525.94;4927028;29;20254;-55
2023/10/04 01:40:35;;;;;;;6.93;2.03;;;;;;;9.48;100.00;148522.22;4925897;28;20237;-55
2023/10/04 01:43:09;;;;;;;4.47;2.23;;;;;;;9.48;100.00;148520.94;4928407;28;20248;-52
2023/10/04 01:45:36;;;;;;;8.27;1.93;;;;;;;9.50;100.00;148525.94;4923004;28;20713;-53
2023/10/04 01:48:04;;;;;;;6.63;2.23;;;;;;;9.45;100.00;148515.97;4928078;29;20285;-55
2023/10/04 01:50:31;;;;;;;9.07;2.43;;;;;;;9.42;100.00;148508.50;4930547;28;20247;-55
2023/10/04 01:53:04;;;;;;;9.70;2.10;;;;;;;9.40;100.00;148503.53;4925950;29;20376;-56
2023/10/04 01:55:31;;;;;;;5.37;2.00;;;;;;;9.35;100.00;148489.84;4925487;28;20281;-55
2023/10/04 01:58:01;;;;;;;6.23;2.57;;;;;;;9.36;100.00;148492.34;4926816;29;20320;-53
2023/10/04 02:00:29;;;;;;;10.33;2.47;;;;;;;9.29;100.00;148477.41;4912199;28;20229;-55
2023/10/04 02:03:02;;;;;;;4.37;2.10;;;;;;;9.28;100.00;148474.91;4927474;28;20233;-52
2023/10/04 02:05:31;;;;;;;3.43;1.70;;;;;;;9.27;100.00;148471.16;4923770;28;20243;-53
2023/10/04 02:08:07;;;;;;;3.77;2.00;;;;;;;9.20;100.00;148455.00;4925846;29;20243;-54
2023/10/04 02:10:33;;;;;;;7.37;2.00;;;;;;;9.13;100.00;148437.59;4925306;28;20238;-55
2023/10/04 02:13:02;;;;;;;9.30;2.10;;;;;;;9.11;100.00;148433.81;4922836;28;20222;-52
2023/10/04 02:15:28;;;;;;;5.33;2.20;;;;;;;9.14;100.00;148441.28;4936050;28;20324;-53
2023/10/04 02:18:21;;;;;;;4.83;1.87;;;;;;;9.11;100.00;148433.81;4927424;29;20335;-53
2023/10/04 02:20:48;;;;;;;4.57;2.20;;;;;;;9.13;100.00;148438.81;4923046;29;20305;-53
2023/10/04 02:23:18;;;;;;;4.03;2.00;;;;;;;9.12;100.00;148436.31;4925757;29;20225;-53
2023/10/04 02:25:46;;;;;;;5.23;2.20;;;;;;;9.06;100.00;148420.16;4924231;28;20234;-53
2023/10/04 02:28:18;;;;;;;5.97;2.47;;;;;;;9.05;100.00;148418.91;4927778;28;20241;-55
2023/10/04 02:30:47;;;;;;;3.83;1.60;;;;;;;8.95;100.00;148394.06;4924774;28;20240;-52
2023/10/04 02:33:14;;;;;;;4.57;1.90;;;;;;;8.91;100.00;148385.31;4924854;29;20237;-53
2023/10/04 02:35:44;;;;;;;6.03;2.43;;;;;;;8.91;100.00;148385.31;4928347;28;21455;-54
2023/10/04 02:38:19;;;;;;;6.10;1.90;;;;;;;8.95;100.00;148395.28;4931277;29;20739;-55
2023/10/04 02:40:48;;;;;;;7.23;2.00;;;;;;;8.88;100.00;148377.88;4936787;28;20233;-54
2023/10/04 02:43:16;;;;;;;4.97;2.13;;;;;;;8.91;100.00;148385.31;4926830;28;20319;-54
2023/10/04 02:45:42;;;;;;;5.73;1.77;;;;;;;8.91;100.00;148385.31;4924083;28;20298;-52
2023/10/04 02:48:10;;;;;;;5.13;2.07;;;;;;;8.91;100.00;148384.09;4927931;29;20234;-52
2023/10/04 02:50:39;;;;;;;3.50;1.93;;;;;;;8.98;100.00;148402.75;4928637;28;20234;-53
2023/10/04 02:53:08;;;;;;;4.03;2.00;;;;;;;9.04;100.00;148416.41;4926097;29;20250;-55
2023/10/04 02:55:36;;;;;;;6.40;1.80;;;;;;;9.14;100.00;148441.28;4911558;29;20874;-54
2023/10/04 02:58:06;;;;;;;4.93;1.80;;;;;;;9.18;100.00;148448.75;4929773;29;20238;-54
2023/10/04 03:00:34;;;;;;;5.10;1.90;;;;;;;9.21;100.00;148457.50;4922911;28;20772;-54
2023/10/04 03:03:02;;;;;;;7.93;1.93;;;;;;;9.20;100.00;148455.00;4926526;29;20297;-55
2023/10/04 03:05:32;;;;;;;4.67;2.27;;;;;;;9.23;100.00;148461.22;4928607;28;20234;-54
2023/10/04 03:08:06;;;;;;;6.20;2.00;;;;;;;9.29;100.00;148477.41;4926481;29;20231;-53
2023/10/04 03:10:34;;;;;;;7.50;2.00;;;;;;;9.33;100.00;148486.09;4924895;28;20652;-55
2023/10/04 03:13:11;;;;;;;5.33;2.00;;;;;;;9.35;100.00;148489.84;4925319;29;20226;-53
2023/10/04 03:15:39;;;;;;;5.03;1.97;;;;;;;9.41;100.00;148506.00;4923814;28;20232;-54
2023/10/04 03:18:17;;;;;;;6.90;2.50;;;;;;;9.41;100.00;148504.78;4925376;29;20235;-55
2023/10/04 03:20:54;;;;;;;4.13;1.70;;;;;;;9.37;100.00;148494.84;4934340;28;20270;-53
2023/10/04 03:23:23;;;;;;;6.87;1.83;;;;;;;9.34;100.00;148487.38;4941322;29;20630;-55
2023/10/04 03:25:52;;;;;;;5.87;1.70;;;;;;;9.37;100.00;148494.84;4922599;28;20242;-55
2023/10/04 03:28:26;;;;;;;8.13;2.23;;;;;;;9.36;100.00;148493.56;4924915;29;20230;-53
2023/10/04 03:33:25;;;;;;;4.67;2.00;;;;;;;9.29;100.00;148477.41;4867271;29;20225;-66
2023/10/04 03:35:53;;;;;;;4.63;2.33;;;;;;;9.26;100.00;148468.66;4874038;29;20237;-66
2023/10/04 03:38:21;;;;;;;4.50;2.03;;;;;;;9.15;100.00;148443.78;4875333;29;20378;-66
2023/10/04 03:40:48;;;;;;;5.67;2.00;;;;;;;9.13;100.00;148438.81;4861649;29;20705;-66
2023/10/04 03:43:17;;;;;;;4.20;2.03;;;;;;;9.09;100.00;148427.63;4875358;29;20240;-66
2023/10/04 03:45:47;;;;;;;5.10;1.43;;;;;;;9.11;100.00;148433.81;4886651;29;20231;-66
2023/10/04 03:48:19;;;;;;;5.57;1.97;;;;;;;9.14;100.00;148441.28;4887283;29;20331;-66
2023/10/04 03:50:55;;;;;;;5.97;2.10;;;;;;;9.19;100.00;148452.53;4887412;29;20239;-66
2023/10/04 03:53:23;;;;;;;6.67;1.90;;;;;;;9.25;100.00;148466.19;4892173;29;20240;-66
2023/10/04 03:55:52;;;;;;;5.10;1.90;;;;;;;9.23;100.00;148462.47;4888822;29;20236;-66
2023/10/04 03:58:20;;;;;;;3.97;1.90;;;;;;;9.17;100.00;148447.53;4888811;29;20314;-66
2023/10/04 04:00:49;;;;;;;3.50;1.87;;;;;;;9.14;100.00;148440.06;4895548;29;20231;-66
2023/10/04 04:03:16;;;;;;;8.97;2.30;;;;;;;9.16;100.00;148445.06;4884714;29;20845;-66
2023/10/04 04:05:44;;;;;;;6.00;1.93;;;;;;;9.18;100.00;148450.03;4892412;29;20250;-66
2023/10/04 04:08:11;;;;;;;10.30;1.83;;;;;;;9.18;100.00;148448.75;4879972;29;20250;-66
2023/10/04 04:10:38;;;;;;;4.37;1.80;;;;;;;9.15;100.00;148442.56;4880026;29;20257;-66
2023/10/04 04:13:05;;;;;;;7.87;2.17;;;;;;;9.03;100.00;148412.69;4876973;29;20238;-66
2023/10/04 04:15:34;;;;;;;5.17;1.87;;;;;;;8.94;100.00;148391.56;4884752;29;20236;-66
2023/10/04 04:18:08;;;;;;;7.13;2.03;;;;;;;8.88;100.00;148376.66;4881014;29;20287;-66
2023/10/04 04:20:35;;;;;;;5.00;2.43;;;;;;;8.86;100.00;148374.16;4877504;29;20699;-66
2023/10/04 04:23:04;;;;;;;5.70;1.90;;;;;;;8.82;100.00;148362.94;4888528;29;20250;-66
2023/10/04 04:25:32;;;;;;;3.27;1.50;;;;;;;8.79;100.00;148356.72;4893696;29;20246;-66
2023/10/04 04:28:03;;;;;;;5.90;2.17;;;;;;;8.69;100.00;148333.06;4878520;29;20607;-66
2023/10/04 04:30:31;;;;;;;6.33;1.90;;;;;;;8.61;100.00;148313.19;4877404;29;20259;-66
2023/10/04 04:33:07;;;;;;;6.80;2.17;;;;;;;8.59;100.00;148308.19;4877572;29;20225;-66
2023/10/04 04:35:51;;;;;;;5.70;1.90;;;;;;;8.57;100.00;148304.50;4892900;29;20236;-66
2023/10/04 04:38:20;;;;;;;6.87;1.90;;;;;;;8.54;100.00;148295.75;4893846;29;20717;-66
2023/10/04 04:40:49;;;;;;;4.13;1.70;;;;;;;8.47;100.00;148278.34;4891556;29;20314;-66
2023/10/04 04:43:31;;;;;;;7.20;2.00;;;;;;;8.48;100.00;148280.84;4881655;29;20739;-66
2023/10/04 04:45:59;;;;;;;3.90;1.83;;;;;;;8.44;100.00;148272.09;4894812;29;20487;-66
2023/10/04 04:48:36;;;;;;;5.73;1.77;;;;;;;8.39;100.00;148260.94;4886523;29;20337;-66
2023/10/04 04:51:11;;;;;;;6.57;2.60;;;;;;;8.36;100.00;148253.47;4892305;29;20980;-66
2023/10/04 04:53:45;;;;;;;5.13;1.60;;;;;;;8.31;100.00;148241.03;4884877;29;20238;-66
2023/10/04 04:56:14;;;;;;;3.63;1.87;;;;;;;8.30;100.00;148237.28;4877570;29;20296;-66
2023/10/04 04:58:45;;;;;;;6.83;2.27;;;;;;;8.24;100.00;148223.63;4885479;29;20226;-66
2023/10/04 05:01:14;;;;;;;5.13;2.20;;;;;;;8.20;100.00;148213.66;4883065;29;20329;-66
2023/10/04 05:03:45;;;;;;;6.03;2.30;;;;;;;8.17;100.00;148207.44;4883991;29;20254;-66
2023/10/04 05:06:13;;;;;;;5.67;1.63;;;;;;;8.16;100.00;148203.72;4879120;29;20319;-66
2023/10/04 05:08:40;;;;;;;5.10;1.87;;;;;;;8.12;100.00;148196.25;4877160;29;20231;-66
2023/10/04 05:11:07;;;;;;;8.27;1.60;;;;;;;8.08;100.00;148186.31;4881442;29;20909;-66
2023/10/04 05:13:34;;;;;;;7.97;2.37;;;;;;;8.10;100.00;148191.28;4879303;29;20242;-66
2023/10/04 05:16:01;;;;;;;3.80;1.97;;;;;;;8.05;100.00;148177.59;4881441;29;20655;-66
2023/10/04 05:18:27;;;;;;;7.20;2.30;;;;;;;8.10;100.00;148191.28;4875929;29;20246;-66
2023/10/04 05:20:55;;;;;;;5.07;2.17;;;;;;;8.16;100.00;148203.72;4882606;29;20245;-66
2023/10/04 05:23:23;;;;;;;4.50;2.00;;;;;;;8.11;100.00;148193.78;4880244;29;20262;-66
2023/10/04 05:25:50;;;;;;;7.30;1.80;;;;;;;8.07;100.00;148183.81;4880759;29;20552;-66
2023/10/04 05:28:18;;;;;;;4.50;2.00;;;;;;;8.05;100.00;148177.59;4879710;29;20872;-66
2023/10/04 05:30:46;;;;;;;3.67;2.30;;;;;;;8.12;100.00;148196.25;4877728;29;20325;-66
2023/10/04 05:33:13;;;;;;;5.70;1.93;;;;;;;8.08;100.00;148186.31;4879637;29;20230;-66
2023/10/04 05:35:41;;;;;;;5.30;1.90;;;;;;;8.17;100.00;148207.44;4876103;29;20327;-66
2023/10/04 05:38:11;;;;;;;6.73;1.80;;;;;;;8.19;100.00;148211.19;4880432;29;20767;-65
2023/10/04 05:40:41;;;;;;;5.57;1.70;;;;;;;8.20;100.00;148213.66;4876525;29;20724;-65
2023/10/04 05:43:08;;;;;;;3.50;1.80;;;;;;;8.20;100.00;148214.91;4880784;29;20667;-66
2023/10/04 05:45:36;;;;;;;5.00;1.90;;;;;;;8.26;100.00;148228.59;4879307;29;20580;-66
2023/10/04 05:48:04;;;;;;;7.57;2.20;;;;;;;8.33;100.00;148244.75;4876089;29;20267;-66
2023/10/04 05:50:32;;;;;;;4.23;1.83;;;;;;;8.43;100.00;148269.63;4876263;29;20235;-65
2023/10/04 05:53:05;;;;;;;5.17;1.87;;;;;;;8.54;100.00;148295.75;4883427;29;20246;-65
2023/10/04 05:55:35;;;;;;;5.37;1.97;;;;;;;8.59;100.00;148306.97;4879743;29;20262;-64
2023/10/04 05:58:06;;;;;;;8.70;2.37;;;;;;;8.67;100.00;148328.09;4879933;29;20287;-64
2023/10/04 06:00:34;;;;;;;4.00;1.77;;;;;;;8.73;100.00;148341.81;4878162;29;20615;-64
2023/10/04 06:03:04;;;;;;;3.13;1.70;;;;;;;8.81;100.00;148361.72;4879571;29;20711;-64
2023/10/04 06:05:33;;;;;;;11.90;2.30;;;;;;;8.93;100.00;148390.31;4875253;29;20235;-64
2023/10/04 06:08:10;;;;;;;4.87;1.90;;;;;;;9.02;100.00;148411.44;4877278;29;20240;-64
2023/10/04 06:10:38;;;;;;;7.03;2.00;;;;;;;9.18;100.00;148450.03;4878534;29;20228;-64
2023/10/04 06:13:08;;;;;;;4.20;1.73;;;;;;;9.34;100.00;148487.38;4880697;29;20219;-64
2023/10/04 06:15:35;;;;;;;5.47;2.00;;;;;;;9.43;100.00;148511.00;4875610;29;20236;-64
2023/10/04 06:18:02;;;;;;;4.50;1.63;;;;;;;9.56;100.00;148542.09;4880969;29;20228;-64
2023/10/04 06:20:33;;;;;;;3.77;1.80;;;;;;;9.62;100.00;148555.81;4875503;29;20242;-64
2023/10/04 06:23:05;;;;;;;6.83;2.17;;;;;;;9.70;100.00;148574.44;4881002;29;20256;-65
2023/10/04 06:25:33;;;;;;;5.83;2.00;;;;;;;9.74;100.00;148584.41;4874885;29;20295;-65
2023/10/04 06:28:04;;;;;;;6.67;1.93;;;;;;;9.77;100.00;148591.88;4879530;29;20388;-65
2023/10/04 06:30:32;;;;;;;7.23;1.90;;;;;;;9.75;100.00;148588.16;4877255;29;20715;-65
2023/10/04 06:33:04;;;;;;;6.30;2.00;;;;;;;9.78;100.00;148594.38;4877758;29;20269;-65
2023/10/04 06:35:37;;;;;;;4.80;1.70;;;;;;;9.81;100.00;148601.84;4875045;29;20711;-65
2023/10/04 06:38:06;;;;;;;6.33;1.77;;;;;;;9.80;100.00;148599.34;4879364;29;20280;-65
2023/10/04 06:40:33;;;;;;;4.60;1.73;;;;;;;9.75;100.00;148586.91;4877477;29;20232;-65
2023/10/04 06:43:05;;;;;;;4.67;1.90;;;;;;;9.75;100.00;148586.91;4879918;29;20879;-65
2023/10/04 06:45:33;;;;;;;4.87;1.87;;;;;;;9.71;100.00;148576.94;4877455;29;20232;-65
2023/10/04 06:48:04;;;;;;;7.10;2.07;;;;;;;9.70;100.00;148575.72;4877950;29;20242;-65
2023/10/04 06:50:35;;;;;;;3.27;1.63;;;;;;;9.69;100.00;148573.22;4875154;29;20241;-64
2023/10/04 06:53:03;;;;;;;8.30;1.93;;;;;;;9.70;100.00;148574.44;4878065;29;20239;-64
2023/10/04 06:55:31;;;;;;;7.07;2.27;;;;;;;9.72;100.00;148579.44;4876716;29;20238;-64
2023/10/04 06:58:04;;;;;;;7.70;2.03;;;;;;;9.77;100.00;148590.66;4880285;29;20703;-65
2023/10/04 07:00:35;;;;;;;7.63;2.10;;;;;;;9.83;100.00;148606.81;4875091;29;20242;-65
2023/10/04 07:03:04;;;;;;;6.67;2.10;;;;;;;9.89;100.00;148620.53;4881481;29;20333;-65
2023/10/04 07:05:35;;;;;;;4.43;1.60;;;;;;;9.91;100.00;148625.50;4875082;29;20236;-65
2023/10/04 07:08:05;;;;;;;7.60;2.27;;;;;;;9.95;100.00;148634.22;4881917;29;20251;-65
2023/10/04 07:10:32;;;;;;;5.67;2.03;;;;;;;10.00;100.00;148646.66;4874762;29;20246;-65
2023/10/04 07:13:03;;;;;;;3.37;1.70;;;;;;;9.98;100.00;148642.94;4878180;29;20239;-64
2023/10/04 07:15:35;;;;;;;5.03;2.10;;;;;;;10.04;100.00;148657.88;4882871;29;20251;-65
2023/10/04 07:18:06;;;;;;;5.53;2.13;;;;;;;10.01;100.00;148650.41;4878165;29;20225;-64
2023/10/04 07:20:34;;;;;;;6.33;1.70;;;;;;;10.01;100.00;148650.41;4878297;29;20267;-64
2023/10/04 07:23:03;;;;;;;12.10;2.20;;;;;;;10.04;100.00;148657.88;4881121;29;20293;-61
2023/10/04 07:25:32;;;;;;;8.93;2.10;;;;;;;10.08;100.00;148666.59;4880657;29;20245;-62
2023/10/04 07:28:08;;;;;;;4.57;1.80;;;;;;;10.16;100.00;148685.22;4878220;29;20999;-62
2023/10/04 07:30:35;;;;;;;6.70;1.70;;;;;;;10.24;100.00;148703.94;4879636;29;20217;-62
2023/10/04 07:33:02;;;;;;;5.70;2.30;;;;;;;10.30;100.00;148720.09;4882271;29;20246;-62
2023/10/04 07:35:31;;;;;;;4.10;2.07;;;;;;;10.31;100.00;148722.59;4877979;29;20254;-62
2023/10/04 07:38:04;;;;;;;4.17;1.80;;;;;;;10.38;100.00;148737.53;4878859;29;20229;-63
2023/10/04 07:40:31;;;;;;;6.47;1.87;;;;;;;10.43;100.00;148751.31;4874867;29;20922;-63
2023/10/04 07:43:03;;;;;;;4.63;1.97;;;;;;;10.52;100.00;148772.47;4882658;29;20236;-62
2023/10/04 07:45:30;;;;;;;5.93;1.70;;;;;;;10.62;100.00;148796.09;4880301;29;20231;-62
2023/10/04 07:48:02;;;;;;;4.60;1.83;;;;;;;10.75;100.00;148827.25;4882458;29;20249;-62
2023/10/04 07:50:29;;;;;;;7.63;1.80;;;;;;;10.88;100.00;148858.38;4880357;29;20653;-63
2023/10/04 07:53:04;;;;;;;7.23;1.70;;;;;;;11.01;100.00;148890.78;4882302;29;20241;-62
2023/10/04 07:55:33;;;;;;;6.27;2.10;;;;;;;11.17;100.00;148929.38;4879909;29;20234;-62
2023/10/04 07:58:04;;;;;;;6.70;1.80;;;;;;;11.35;100.00;148971.75;4894050;29;20236;-62
2023/10/04 08:00:37;;;;;;;8.77;1.80;;;;;;;11.52;100.00;149014.13;4879527;29;20225;-62
2023/10/04 08:03:05;;;;;;;4.97;1.70;;;;;;;11.62;100.00;149037.81;4878984;29;20311;-62
2023/10/04 08:05:32;;;;;;;6.23;1.73;;;;;;;11.85;100.00;149091.41;4881409;29;20228;-62
2023/10/04 08:08:03;;;;;;;5.17;1.70;;;;;;;12.01;100.00;149131.34;4881182;29;20263;-63
2023/10/04 08:10:33;;;;;;;5.50;1.70;;;;;;;12.13;100.00;149158.78;4878302;29;20234;-63
2023/10/04 08:13:05;;;;;;;3.97;1.60;;;;;;;12.21;100.00;149178.69;4882349;29;20321;-63
2023/10/04 08:15:37;;;;;;;7.10;1.80;;;;;;;12.30;100.00;149201.13;4877960;29;20229;-63
2023/10/04 08:18:04;;;;;;;6.60;1.47;;;;;;;12.39;100.00;149223.56;4878311;29;20316;-63
2023/10/04 08:20:32;;;;;;;7.13;1.80;;;;;;;12.45;100.00;149237.31;4879242;29;20334;-63
2023/10/04 08:23:02;;;;;;;6.13;2.03;;;;;;;12.54;100.00;149259.75;4881140;29;20249;-63
2023/10/04 08:25:29;;;;;;;5.93;2.00;;;;;;;12.60;100.00;149272.22;4879071;29;20602;-63
2023/10/04 08:28:03;;;;;;;6.73;2.60;;;;;;;12.66;100.00;149288.41;4885336;29;20323;-62
2023/10/04 08:30:31;;;;;;;5.33;1.90;;;;;;;12.69;100.00;149295.91;4874880;29;20330;-62
2023/10/04 08:33:03;;;;;;;3.97;1.63;;;;;;;12.84;100.00;149332.06;4875802;29;20690;-62
2023/10/04 08:35:33;;;;;;;4.60;1.40;;;;;;;12.99;100.00;149366.97;4881097;29;20235;-62
2023/10/04 08:38:04;;;;;;;9.67;1.93;;;;;;;13.16;100.00;149406.91;4881055;29;20235;-62
2023/10/04 08:40:34;;;;;;;9.50;2.07;;;;;;;13.21;100.00;149419.38;4876991;29;20228;-62
2023/10/04 08:43:04;;;;;;;4.07;1.73;;;;;;;13.32;100.00;149445.56;4878429;29;20720;-62
2023/10/04 08:45:33;;;;;;;8.00;1.90;;;;;;;13.38;100.00;149461.81;4877483;29;20273;-62
2023/10/04 08:48:03;;;;;;;6.13;1.90;;;;;;;13.51;100.00;149493.03;4882596;29;20251;-62
2023/10/04 08:50:36;;;;;;;9.10;2.27;;;;;;;13.62;100.00;149519.25;4876404;29;20247;-62
2023/10/04 08:53:10;;;;;;;8.27;2.00;;;;;;;13.54;100.00;149500.50;4882622;29;20247;-62
2023/10/04 08:55:41;;;;;;;6.73;1.80;;;;;;;13.65;100.00;149526.75;4878326;29;20237;-62
2023/10/04 08:58:09;;;;;;;5.17;2.00;;;;;;;13.79;100.00;149559.16;4881304;29;20246;-62
2023/10/04 09:00:43;;;;;;;5.83;1.60;;;;;;;13.87;100.00;149580.38;4879163;29;20663;-62
2023/10/04 09:03:12;;;;;;;5.40;2.07;;;;;;;13.80;100.00;149562.91;4879443;29;20248;-62
2023/10/04 09:05:46;;;;;;;4.80;1.90;;;;;;;13.83;100.00;149569.13;4877539;29;20232;-62
2023/10/04 09:08:12;;;;;;;3.73;1.70;;;;;;;13.90;100.00;149586.59;4882213;29;20308;-62
2023/10/04 09:10:40;;;;;;;6.20;1.83;;;;;;;14.06;100.00;149624.06;4880534;29;20225;-62
2023/10/04 09:13:06;;;;;;;3.77;1.70;;;;;;;14.18;99.39;149654.03;4883097;29;20631;-62
2023/10/04 09:15:33;;;;;;;6.37;1.40;;;;;;;14.28;99.91;149677.75;4879535;29;20236;-63
2023/10/04 09:18:04;;;;;;;5.73;1.93;;;;;;;14.45;95.27;149718.94;4882558;29;20285;-62
2023/10/04 09:20:32;;;;;;;4.43;1.30;;;;;;;14.46;92.06;149721.44;4876118;29;20234;-62
2023/10/04 09:23:15;;;;;;;6.03;1.53;;;;;;;14.36;90.38;149696.47;4880135;29;20230;-62
2023/10/04 09:25:42;;;;;;;7.13;1.43;;;;;;;14.35;86.81;149693.97;4877897;29;20344;-62
2023/10/04 09:28:09;;;;;;;4.33;1.43;;;;;;;14.29;87.29;149681.47;4880223;29;20809;-62
2023/10/04 09:30:36;;;;;;;5.20;1.90;;;;;;;14.39;89.04;149705.19;4877766;29;20237;-62
2023/10/04 09:33:07;;;;;;;3.70;1.60;;;;;;;14.46;84.12;149721.44;4882189;29;20242;-63
2023/10/04 09:35:44;;;;;;;6.27;1.53;;;;;;;14.58;84.35;149751.41;4876150;29;20226;-63
2023/10/04 09:38:15;;;;;;;4.17;1.37;;;;;;;14.60;87.42;149755.13;4879558;29;20579;-63
2023/10/04 09:40:53;;;;;;;7.80;2.93;;;;;;;14.50;87.06;149731.44;4877183;29;20238;-63
2023/10/04 09:43:35;;;;;;;9.13;3.23;;;;;;;14.50;88.70;149730.16;4876220;29;20763;-62
2023/10/04 09:46:01;;;;;;;11.70;3.40;;;;;;;14.52;87.07;149735.16;4878157;29;20232;-62
2023/10/04 09:48:37;;;;;;;11.97;3.53;;;;;;;14.63;86.98;149761.41;4884981;29;20259;-62
2023/10/04 09:51:05;;;;;;;9.90;2.47;;;;;;;14.69;85.22;149776.38;4878870;29;20622;-62
2023/10/04 09:53:32;;;;;;;5.97;1.77;;;;;;;14.76;81.53;149795.13;4878704;29;20292;-62
2023/10/04 09:56:02;;;;;;;4.37;1.50;;;;;;;14.93;82.94;149835.09;4882143;29;20329;-62
2023/10/04 09:58:30;;;;;;;10.40;2.20;;;;;;;14.93;82.50;149833.84;4876893;29;20226;-62
2023/10/04 10:01:02;;;;;;;5.37;2.30;;;;;;;15.10;86.16;149876.31;4878033;29;20262;-62
2023/10/04 10:03:38;;;;;;;4.23;1.87;;;;;;;15.29;79.77;149922.53;4878599;29;20616;-62
2023/10/04 10:06:09;;;;;;;6.50;1.50;;;;;;;15.41;80.39;149950.00;4879915;29;20232;-62
2023/10/04 10:08:44;;;;;;;3.67;1.77;;;;;;;15.49;80.54;149971.25;4876582;29;20316;-62
2023/10/04 10:11:11;;;;;;;5.93;1.93;;;;;;;15.82;77.74;150048.72;4880044;29;20239;-62
2023/10/04 10:13:38;;;;;;;5.70;1.43;;;;;;;16.07;74.32;150110.00;4877686;29;20250;-63
2023/10/04 10:16:06;;;;;;;7.87;1.80;;;;;;;16.05;76.88;150105.00;4879538;29;20230;-63
2023/10/04 10:18:34;;;;;;;8.77;1.83;;;;;;;16.24;77.17;150151.22;4876360;29;20309;-63
2023/10/04 10:21:01;;;;;;;4.57;1.80;;;;;;;16.14;75.82;150127.50;4881289;29;20749;-63
2023/10/04 10:23:26;;;;;;;3.57;1.57;;;;;;;16.22;75.70;150146.22;4878982;29;20227;-63
2023/10/04 10:26:19;;;;;;;8.63;1.80;;;;;;;15.98;75.22;150088.72;4881497;29;20230;-63
2023/10/04 10:28:48;;;;;;;5.00;1.57;;;;;;;16.20;74.88;150141.22;4878402;29;20250;-63
2023/10/04 10:31:22;;;;;;;8.77;1.80;;;;;;;16.16;71.19;150132.50;4879501;29;20306;-63
2023/10/04 10:33:50;;;;;;;9.37;1.77;;;;;;;15.57;73.78;149989.97;4877680;29;20239;-63
2023/10/04 10:36:21;;;;;;;7.23;1.50;;;;;;;15.62;74.54;150001.25;4877299;29;20291;-63
2023/10/04 10:38:48;;;;;;;4.63;1.20;;;;;;;15.72;73.60;150024.97;4875591;29;20894;-63
2023/10/04 10:42:03;;;;;;;5.40;1.43;;;;;;;15.91;74.32;150071.22;4878601;29;20229;-63
2023/10/04 10:44:37;;;;;;;4.97;1.83;;;;;;;16.12;71.67;150121.22;4869854;29;20230;-62
2023/10/04 10:47:14;;;;;;;8.07;1.67;;;;;;;16.07;68.50;150110.00;4880153;29;20776;-62
2023/10/04 10:49:44;;;;;;;4.13;1.30;;;;;;;16.07;69.98;150110.00;4877215;29;20233;-63
2023/10/04 10:52:21;;;;;;;6.13;1.53;;;;;;;16.12;70.37;150122.50;4880064;29;21204;-62
2023/10/04 10:54:48;;;;;;;6.60;1.43;;;;;;;16.03;69.81;150101.22;4878508;29;20234;-62
2023/10/04 10:57:16;;;;;;;4.00;1.30;;;;;;;16.26;69.33;150156.22;4883301;29;20598;-62
2023/10/04 10:59:43;;;;;;;7.80;1.87;;;;;;;16.12;70.33;150121.22;4880502;29;20238;-62
2023/10/04 11:02:10;;;;;;;4.77;1.40;;;;;;;16.03;70.90;150101.22;4878239;29;20240;-63
2023/10/04 11:04:36;;;;;;;4.63;1.50;;;;;;;16.27;70.33;150158.72;4883325;29;20663;-62
2023/10/04 11:07:06;;;;;;;7.33;1.60;;;;;;;16.60;69.61;150237.44;4880755;29;20230;-62
2023/10/04 11:09:37;;;;;;;8.07;1.93;;;;;;;16.68;70.95;150258.72;4879340;29;20238;-63
2023/10/04 11:12:06;;;;;;;8.87;1.50;;;;;;;16.50;70.18;150213.72;4881674;29;20238;-63
2023/10/04 11:14:34;;;;;;;5.57;1.70;;;;;;;16.57;69.48;150231.22;4881153;29;20648;-63
2023/10/04 11:17:00;;;;;;;6.87;1.80;;;;;;;17.00;69.12;150333.75;4881547;29;20326;-63
2023/10/04 11:19:27;;;;;;;4.97;1.33;;;;;;;17.05;66.92;150346.25;4880636;29;20231;-63
2023/10/04 11:21:53;;;;;;;4.47;1.67;;;;;;;17.40;66.84;150432.59;4883571;29;20734;-63
2023/10/04 11:24:22;;;;;;;5.43;1.60;;;;;;;17.86;63.86;150542.63;4883522;29;20707;-63
2023/10/04 11:26:50;;;;;;;7.10;1.50;;;;;;;17.59;63.57;150476.34;4881321;29;20242;-62
2023/10/04 11:29:17;;;;;;;3.57;1.33;;;;;;;17.14;64.69;150368.78;4882266;29;20331;-63
2023/10/04 11:31:44;;;;;;;4.50;1.50;;;;;;;17.21;66.45;150385.06;4881293;29;20246;-63
2023/10/04 11:34:11;;;;;;;8.70;1.50;;;;;;;17.36;66.00;150422.59;4883184;29;20240;-63
2023/10/04 11:36:38;;;;;;;6.77;1.90;;;;;;;17.32;64.51;150411.31;4880269;29;20236;-63
2023/10/04 11:39:10;;;;;;;5.37;1.77;;;;;;;17.14;65.84;150367.56;4882412;29;20225;-62